Silverton, Colorado
Current Conditions -  °F | °C
As of 2:55 AM on Saturday 29 Nov 2014 (Local Time) from KTEX Reporting Station
Clear Clear  
Wind Chill: 40°   Ceiling: Unl
Heat Index: 40°   Visibility: 10mi
Dew Point:   Wind: 3mph
Humidity: 26%   Direction: 80°E
Pressure: 30.12"   Gusts: NA
Location:  37.81°N, 107.66°W
Report Text: KTEX 290955Z AUTO 08003KT 10SM CLR 04/M14 A3012 RMK AO2 T00421141
Loading
Personal Weather Stations






























Interactive Weather Map New forecast layout! Learn more

10-Day Weather Forecast

Advertisements
Track Severe Weather on mobile